KLKV/LKV METAR and TAF weather

Enter ICAO airport designator
Station Type Date Time Source
KLKV METAR 2019/07/15 19:53 UTC NOAA

KLKV 151953Z AUTO 17010KT 10SM CLR 26/09 A3013 RMK AO2 SLP169 T02610094


Station Type Date Time Source
KLKV Decoded METAR 2019/07/15 19:53 UTC NOAA

Lakeview, Lake County Airport, OR, United States (KLKV) 42-10N 120-24W
Jul 15, 2019 - 03:53 PM EDT / 2019.07.15 1953 UTC
Wind: from the S (170 degrees) at 12 MPH (10 KT):0
Visibility: 10 mile(s):0
Sky conditions: clear
Temperature: 79.0 F (26.1 C)
Dew Point: 48.9 F (9.4 C)
Relative Humidity: 34%
Pressure (altimeter): 30.13 in. Hg (1020 hPa)
ob: KLKV 151953Z AUTO 17010KT 10SM CLR 26/09 A3013 RMK AO2 SLP169 T02610094
cycle: 20

Station Type Date Time Source
KLKV TAF UTC NOAA

Error!

Example: see airport list